Terminal Aerodrome Forecast
Issued by NWS

Home | Current Version | Previous Version | Text Only | Print | Product List | Glossary On
Versions: 1 2 3 4 5 6 7 8 9 10 11 12 13 14 15
000
FTUS44 KLIX 221740
TAFHDC
TAF
KHDC 221740Z 2218/2318 17010KT P6SM BKN025 BKN070
     FM222300 15007KT P6SM SCT025 BKN060
     FM230200 13004KT P6SM BKN015 BKN040
     FM230500 13005KT 4SM BR BKN008 BKN020
     FM231400 14005KT P6SM VCSH BKN015 PROB30 2314/2318 3SM -TSRA
      OVC008CB=

USA.gov is the U.S. government's official web portal to all federal, state and local government web resources and services.